Dauphin Barker Airport
CYDN : now visible

Airfield :











YOU CAN JOIN US ON...

 
LOGIN :

Register | Disclaimer

   EN    FR    IT 

 









Legend :    VFR   Marginal VFR   IFR   Intensive IFR   Very Intensive IFR
Visi :
Ceiling :
>= 8 km
>= 3000ft
5 to 8 km
1000 to 3000 ft
1500m to 5 km
500 to 1000 ft
800 to 1500m
200 to 500 ft
< 800m
< 200 ft
Symbols :   Thunderstorms  Fog  Heavy snow  Heavy precipitations  Wind > 20 kt







- Airport Elevation : 999 ft
- IATA code : YDN


CYDN - Dauphin Barker

CURRENT METAR :
  • 202000Z AUTO 17006KT 9SM FEW120 BKN180 22/16 A2970 RMK LTNG DIST S PRESFR SLP060 DENSITY ALT 2200FT

EXPIRED METARs :
  • 201930Z AUTO 18006KT 9SM BKN025 OVC150 21/16 A2974 RMK SLP075 DENSITY ALT 2100FT
  • 201913Z AUTO 16006KT 9SM BKN023 BKN150 OVC180 21/16 A2975 RMK PRESRR SLP078 DENSITY ALT 2000FT
  • 201900Z AUTO 21007KT 9SM FEW021 BKN150 OVC180 21/17 A2973 RMK SLP073 DENSITY ALT 2100FT
  • 201848Z AUTO 19007KT 9SM FEW019 SCT024 BKN150 OVC180 21/17 A2972 RMK SLP069 DENSITY ALT 2100FT
  • 201842Z AUTO 17006KT 160V230 9SM BKN021 OVC150 21/17 A2972 RMK SLP070 DENSITY ALT 2100FT
  • 201825Z AUTO 22010KT 9SM BKN021 OVC150 20/16 A2973 RMK SLP073 DENSITY ALT 2000FT
  • 201813Z AUTO 21007KT 9SM -RA BKN019 BKN160 BKN190 20/17 A2974 RMK SLP075 DENSITY ALT 2000FT

TAF TAF CYDN
Valid from the 20 at 18:00 until the 21 at 06:00 UTC


201745Z 2018/2106 26010KT P6SM BKN030 BKN140
TEMPO 2018/2021 5SM -SHRA BR BKN020 OVC120
FM202100 25012G22KT P6SM -SHRA SCT020 BKN040
TEMPO 2021/2103 5SM -SHRA BR SCT008 BKN020 OVC040
PROB40 2021/2103 VRB20G40KT 2SM +TSRA BR OVC008CB
FM210300 25008KT P6SM SCT008 BKN030
TEMPO 2103/2106 4SM BR BKN008 OVC030 RMK FCST BASED ON AUTO OBS. NXT FCST BY 210000Z
No reported NOTAMs for that airfield.



MET'MAP, your aeronautical weather chart ! - Copyright ORBIFLY December 2007 - Disclaimer

ORBIFLY MET'MAP TEAM :

Programming & Development : Alexandra Zaïnal
Concept & Development : Baudouin d'Aumeries
Co-Development & Prog : Marc-Olivier Méhu
Technical & hardware support : Manuel Goepfert

Contact : metmap@orbifly.com




SOURCES & CREDITS :

   NOAA       Earth
Advisory